Time;durP1;ratioP1;P1;durP2;ratioP2;P2;SDS_P1;SDS_P2;PMS_P1;PMS_P2;Temp;Humidity;BMP_temperature;BMP_pressure;BME280_temperature;BME280_humidity;BME280_pressure;Samples;Min_cycle;Max_cycle;Signal;HPM_P1;HPM_P2
2022/09/04 00:00:56;;;;;;;5.00;2.10;;;;;;;14.41;67.81;99614.48;25090;1314;3051587;-62
2022/09/04 00:03:34;;;;;;;4.80;2.00;;;;;;;14.67;67.03;99619.83;25047;1314;3055422;-60
2022/09/04 00:06:06;;;;;;;5.90;2.20;;;;;;;14.46;67.04;99621.23;25045;1315;3055517;-61
2022/09/04 00:08:40;;;;;;;5.10;2.50;;;;;;;14.15;67.87;99623.96;25040;1315;3059089;-60
2022/09/04 00:11:30;;;;;;;8.70;2.20;;;;;;;13.99;68.54;99628.65;25039;1314;3026914;-62
2022/09/04 00:14:31;;;;;;;3.10;1.80;;;;;;;13.86;69.00;99626.11;25052;1314;3055968;-61
2022/09/04 00:17:35;;;;;;;5.60;1.80;;;;;;;13.59;70.22;99630.08;25005;1315;3053735;-60
2022/09/04 00:20:09;;;;;;;4.30;2.50;;;;;;;13.40;70.61;99630.04;25015;1314;3071553;-61
2022/09/04 00:22:57;;;;;;;7.00;3.10;;;;;;;13.43;70.02;99633.31;25098;1315;3050224;-61
2022/09/04 00:25:37;;;;;;;7.70;2.90;;;;;;;13.44;70.43;99629.74;25050;1314;3052713;-60
2022/09/04 00:28:43;;;;;;;4.30;1.60;;;;;;;13.45;70.28;99625.75;25110;1315;3052869;-60
2022/09/04 00:31:38;;;;;;;6.00;3.20;;;;;;;14.16;68.16;99617.55;25114;1314;3059201;-60
2022/09/04 00:34:21;;;;;;;6.00;3.20;;;;;;;14.33;67.35;99621.59;25056;1314;3050120;-61
2022/09/04 00:36:53;;;;;;;6.30;2.70;;;;;;;14.31;67.25;99626.70;25071;1314;3053275;-62
2022/09/04 00:39:46;;;;;;;5.30;3.60;;;;;;;14.16;68.00;99630.11;25118;1314;3026986;-60
2022/09/04 00:42:34;;;;;;;10.30;3.90;;;;;;;14.00;68.59;99631.60;25065;1314;3071282;-61
2022/09/04 00:45:11;;;;;;;11.90;4.60;;;;;;;13.72;69.43;99634.95;25077;1314;3049379;-61
2022/09/04 00:48:34;;;;;;;12.90;5.50;;;;;;;13.70;69.76;99635.64;25046;1313;3055054;-61
2022/09/04 00:51:15;;;;;;;14.50;5.70;;;;;;;13.51;70.26;99640.63;24901;1318;3055730;-60
2022/09/04 00:53:50;;;;;;;12.20;6.10;;;;;;;13.38;70.79;99642.48;24952;1318;3059108;-60
2022/09/04 00:56:47;;;;;;;13.80;6.00;;;;;;;13.25;71.44;99644.76;25037;1315;3050105;-60
2022/09/04 00:59:35;;;;;;;12.90;3.70;;;;;;;13.20;71.51;99635.75;25122;1314;3051970;-61
2022/09/04 01:02:11;;;;;;;7.00;3.40;;;;;;;13.92;69.97;99630.93;25126;1314;3055259;-61
2022/09/04 01:04:42;;;;;;;8.40;4.30;;;;;;;14.39;68.34;99625.80;25060;1317;3069048;-61
2022/09/04 01:07:36;;;;;;;15.00;5.20;;;;;;;14.49;67.83;99624.30;25080;1314;3026410;-60
2022/09/04 01:10:23;;;;;;;8.80;4.90;;;;;;;14.27;67.93;99621.17;25061;1314;3051390;-61
2022/09/04 01:13:17;;;;;;;14.50;6.60;;;;;;;14.08;68.44;99619.39;25100;1314;3054471;-60
2022/09/04 01:15:59;;;;;;;14.30;6.40;;;;;;;13.77;69.59;99620.58;25110;1314;3057478;-59
2022/09/04 01:18:37;;;;;;;15.70;6.50;;;;;;;13.41;70.46;99622.88;25107;1315;3052327;-61
2022/09/04 01:21:12;;;;;;;16.40;5.80;;;;;;;13.24;71.43;99625.25;25094;1314;3055456;-61
2022/09/04 01:24:30;;;;;;;12.60;5.50;;;;;;;13.24;71.16;99625.12;25063;1314;3053542;-61
2022/09/04 01:27:08;;;;;;;7.70;4.00;;;;;;;12.96;72.50;99623.51;25032;1314;3071452;-60
2022/09/04 01:29:40;;;;;;;5.10;2.30;;;;;;;12.87;72.99;99631.65;25030;1314;3049114;-60
2022/09/04 01:32:36;;;;;;;11.10;2.40;;;;;;;13.40;72.42;99624.39;25070;1314;3026231;-61
2022/09/04 01:35:28;;;;;;;5.60;1.80;;;;;;;13.76;70.32;99620.98;25011;1314;3054937;-61
2022/09/04 01:38:09;;;;;;;5.20;1.80;;;;;;;13.58;70.41;99621.70;25074;1313;3057168;-60
2022/09/04 01:40:53;;;;;;;4.20;1.70;;;;;;;13.42;70.78;99616.13;25070;1314;3049744;-60
2022/09/04 01:43:23;;;;;;;3.80;1.30;;;;;;;13.11;72.01;99618.40;25143;1314;3053036;-60
2022/09/04 01:45:58;;;;;;;2.20;1.30;;;;;;;12.92;73.05;99611.77;25077;1314;3026562;-60
2022/09/04 01:48:51;;;;;;;3.60;1.60;;;;;;;12.64;73.93;99621.05;25038;1314;3068145;-59
2022/09/04 01:51:19;;;;;;;2.90;1.20;;;;;;;12.45;74.87;99621.59;25057;1315;3051062;-61
2022/09/04 01:54:21;;;;;;;2.80;1.10;;;;;;;12.34;75.69;99616.52;25072;1314;3026675;-61
2022/09/04 01:57:08;;;;;;;2.30;1.40;;;;;;;12.86;73.78;99603.08;25065;1314;3071012;-60
2022/09/04 01:59:41;;;;;;;4.00;1.70;;;;;;;13.06;73.65;99602.38;25058;1314;3051845;-59
2022/09/04 02:02:18;;;;;;;2.90;1.30;;;;;;;13.14;73.18;99597.50;25082;1313;3027154;-62
2022/09/04 02:05:03;;;;;;;3.90;1.70;;;;;;;13.09;72.79;99598.66;25075;1314;3055366;-59
2022/09/04 02:07:43;;;;;;;2.10;1.70;;;;;;;12.90;73.35;99597.38;25083;1314;3056936;-59
2022/09/04 02:10:21;;;;;;;2.80;1.80;;;;;;;12.65;74.20;99605.17;25086;1314;3052214;-60
2022/09/04 02:13:14;;;;;;;6.30;2.30;;;;;;;12.45;74.96;99609.13;25062;1315;3055318;-60
2022/09/04 02:15:57;;;;;;;3.40;1.20;;;;;;;12.20;76.52;99607.97;25052;1314;3051104;-60
2022/09/04 02:19:14;;;;;;;3.80;1.80;;;;;;;12.62;74.85;99603.95;25094;1315;3071405;-60
2022/09/04 02:21:50;;;;;;;5.00;1.90;;;;;;;12.82;74.63;99602.84;25046;1313;3049003;-62
2022/09/04 02:24:28;;;;;;;5.10;1.90;;;;;;;13.09;72.98;99597.48;25053;1314;3053204;-61
2022/09/04 02:27:02;;;;;;;5.30;2.00;;;;;;;12.57;73.98;99605.35;25048;1315;3055621;-60
2022/09/04 02:29:43;;;;;;;7.80;2.00;;;;;;;12.41;74.84;99605.02;25052;1315;3059000;-59
2022/09/04 02:32:24;;;;;;;8.50;2.00;;;;;;;12.33;75.36;99609.02;25078;1314;3053999;-59
2022/09/04 02:35:12;;;;;;;4.70;2.10;;;;;;;12.32;75.36;99611.38;25056;1314;3056054;-58
2022/09/04 02:38:05;;;;;;;4.30;1.20;;;;;;;12.39;74.84;99609.38;25042;1315;3051759;-60
2022/09/04 02:41:04;;;;;;;3.90;1.40;;;;;;;13.27;72.17;99611.02;25079;1314;3071450;-59
2022/09/04 02:43:45;;;;;;;4.00;2.10;;;;;;;13.65;70.56;99617.02;25061;1314;3049291;-60
2022/09/04 02:46:26;;;;;;;3.20;1.60;;;;;;;13.60;70.46;99623.02;25093;1314;3055325;-60
2022/09/04 02:49:02;;;;;;;3.40;1.90;;;;;;;13.40;70.11;99635.08;25124;1315;3053347;-61
2022/09/04 02:51:44;;;;;;;4.80;1.70;;;;;;;13.09;70.75;99641.96;25057;1314;3059141;-60
2022/09/04 02:54:36;;;;;;;4.40;2.10;;;;;;;13.02;70.73;99635.39;25038;1315;3049143;-60
2022/09/04 02:57:11;;;;;;;3.90;2.10;;;;;;;12.89;71.27;99641.21;25056;1313;3055869;-61
2022/09/04 02:59:57;;;;;;;4.70;2.10;;;;;;;12.71;72.32;99640.66;25100;1314;3051607;-60
2022/09/04 03:02:30;;;;;;;3.00;1.50;;;;;;;12.69;72.75;99639.35;25086;1315;3071146;-60
2022/09/04 03:05:04;;;;;;;5.00;2.10;;;;;;;13.18;71.43;99630.06;25083;1314;3026522;-60
2022/09/04 03:07:40;;;;;;;4.30;2.40;;;;;;;13.47;69.70;99625.98;25137;1314;3052829;-60
2022/09/04 03:10:16;;;;;;;8.30;2.90;;;;;;;13.62;69.21;99623.55;25057;1314;3052515;-62
2022/09/04 03:12:50;;;;;;;7.20;2.90;;;;;;;13.52;69.12;99625.48;25111;1314;3056355;-60
2022/09/04 03:15:29;;;;;;;8.70;3.40;;;;;;;13.31;69.60;99637.29;25039;1315;3026906;-62
2022/09/04 03:18:51;;;;;;;10.90;4.40;;;;;;;12.95;71.03;99642.68;25085;1315;3055260;-62
2022/09/04 03:21:29;;;;;;;9.60;4.20;;;;;;;12.79;71.11;99652.42;25027;1314;3053707;-61
2022/09/04 03:23:59;;;;;;;7.80;3.40;;;;;;;12.72;71.17;99651.98;25076;1314;3068223;-60
2022/09/04 03:26:35;;;;;;;10.40;3.20;;;;;;;12.61;71.74;99651.80;25049;1314;3026626;-60
2022/09/04 03:29:14;;;;;;;4.00;1.70;;;;;;;12.56;72.36;99644.77;25100;1314;3054458;-59
2022/09/04 03:32:02;;;;;;;2.90;1.50;;;;;;;13.23;70.47;99636.07;25068;1314;3055641;-62
2022/09/04 03:34:45;;;;;;;6.10;1.70;;;;;;;13.67;68.71;99622.67;25051;1313;3060800;-61
2022/09/04 03:37:42;;;;;;;2.80;1.70;;;;;;;13.70;68.16;99623.88;25076;1313;3052415;-61
2022/09/04 03:40:15;;;;;;;4.40;2.40;;;;;;;13.47;68.69;99628.12;25050;1314;3055926;-60
2022/09/04 03:43:03;;;;;;;3.90;2.10;;;;;;;13.05;69.80;99628.19;25115;1314;3026796;-60
2022/09/04 03:45:44;;;;;;;4.50;2.30;;;;;;;12.95;70.09;99641.46;25087;1314;3070197;-60
2022/09/04 03:48:22;;;;;;;3.50;2.00;;;;;;;12.89;70.19;99641.05;25037;1313;3051865;-60
2022/09/04 03:51:17;;;;;;;7.60;2.50;;;;;;;12.74;71.04;99648.55;25063;1314;3054441;-62
2022/09/04 03:53:59;;;;;;;6.80;2.40;;;;;;;12.72;71.28;99647.59;25114;1315;3055440;-59
2022/09/04 03:56:36;;;;;;;5.80;1.80;;;;;;;12.67;71.42;99645.65;25114;1313;3059375;-58
2022/09/04 03:59:11;;;;;;;5.40;1.60;;;;;;;13.37;69.71;99645.69;25048;1313;3049457;-60
2022/09/04 04:01:50;;;;;;;3.70;2.20;;;;;;;13.76;68.15;99645.60;25050;1313;3052981;-59
2022/09/04 04:04:42;;;;;;;5.00;2.10;;;;;;;13.87;67.64;99645.56;25079;1315;3053865;-61
2022/09/04 04:07:20;;;;;;;11.80;3.00;;;;;;;13.72;67.75;99641.48;25063;1313;3070977;-60
2022/09/04 04:10:12;;;;;;;5.30;2.10;;;;;;;13.44;68.76;99642.23;25049;1313;3047959;-60
2022/09/04 04:13:07;;;;;;;6.20;2.50;;;;;;;13.28;68.58;99647.00;25101;1314;3055284;-60
2022/09/04 04:15:36;;;;;;;7.60;2.70;;;;;;;13.05;69.18;99648.16;25152;1314;3052638;-59
2022/09/04 04:18:33;;;;;;;7.30;2.30;;;;;;;13.05;69.65;99646.77;25075;1313;3026966;-60
2022/09/04 04:21:21;;;;;;;5.50;2.60;;;;;;;12.99;70.12;99645.09;25133;1314;3054476;-60
2022/09/04 04:23:57;;;;;;;5.50;2.50;;;;;;;12.85;70.56;99660.65;25125;1313;3055044;-61
2022/09/04 04:26:30;;;;;;;9.80;3.60;;;;;;;12.68;71.50;99668.61;25089;1313;3059248;-61
2022/09/04 04:29:29;;;;;;;5.00;1.90;;;;;;;12.83;70.87;99666.41;25085;1315;3026800;-61
2022/09/04 04:32:13;;;;;;;6.50;2.50;;;;;;;13.62;69.17;99658.23;25102;1314;3055959;-60
2022/09/04 04:34:54;;;;;;;7.50;3.10;;;;;;;14.02;67.12;99656.44;25082;1313;3054194;-61
2022/09/04 04:38:01;;;;;;;6.20;3.10;;;;;;;14.04;66.92;99663.14;25049;1313;3071356;-59
2022/09/04 04:40:43;;;;;;;5.10;3.10;;;;;;;13.75;67.63;99666.82;25099;1313;3050171;-60
2022/09/04 04:43:21;;;;;;;9.90;3.90;;;;;;;13.60;68.09;99667.02;25100;1313;3055319;-60
2022/09/04 04:46:23;;;;;;;8.40;3.90;;;;;;;13.42;68.51;99675.46;25062;1313;3055588;-60
2022/09/04 04:49:21;;;;;;;7.80;3.70;;;;;;;13.42;68.08;99680.38;25055;1315;3057930;-61
2022/09/04 04:52:14;;;;;;;10.40;4.30;;;;;;;13.23;68.96;99685.30;25109;1313;3052574;-60
2022/09/04 04:55:05;;;;;;;10.50;4.00;;;;;;;13.12;69.49;99690.41;25092;1313;3055701;-61
2022/09/04 04:57:56;;;;;;;9.60;4.10;;;;;;;13.00;70.28;99685.98;25098;1314;3054664;-61
2022/09/04 05:00:35;;;;;;;9.90;5.00;;;;;;;13.07;69.78;99685.37;25021;1313;3071678;-63
2022/09/04 05:03:15;;;;;;;4.60;2.40;;;;;;;12.94;70.54;99685.34;25091;1313;3048822;-61
2022/09/04 05:06:15;;;;;;;7.40;2.60;;;;;;;13.60;69.00;99687.04;25102;1315;3054891;-61
2022/09/04 05:09:08;;;;;;;7.70;3.70;;;;;;;14.30;66.76;99689.31;25125;1313;3055922;-62
2022/09/04 05:12:03;;;;;;;5.80;2.70;;;;;;;13.95;66.68;99691.45;25041;1315;3057415;-62
2022/09/04 05:14:38;;;;;;;;;;;;;;;14.02;66.35;99692.20;25097;1313;3052349;-60
2022/09/04 05:17:13;;;;;;;9.40;3.40;;;;;;;13.88;66.84;99695.30;25091;1313;3055595;-63
2022/09/04 05:20:33;;;;;;;8.60;3.90;;;;;;;13.72;67.58;99696.06;25130;1313;3051637;-59
2022/09/04 05:23:10;;;;;;;9.10;4.60;;;;;;;13.63;68.02;99695.85;24982;1317;3071257;-61
2022/09/04 05:25:46;;;;;;;8.90;4.30;;;;;;;13.54;68.03;99700.47;25036;1314;3049134;-62
2022/09/04 05:28:39;;;;;;;9.00;4.60;;;;;;;13.50;67.76;99700.20;25073;1313;3053922;-60
2022/09/04 05:31:08;;;;;;;7.70;4.60;;;;;;;13.48;68.04;99696.50;25105;1313;3053325;-60
2022/09/04 05:34:09;;;;;;;11.20;5.30;;;;;;;13.43;68.40;99694.92;25109;1313;3026602;-60
2022/09/04 05:36:53;;;;;;;12.40;5.80;;;;;;;13.38;68.67;99702.61;25074;1314;3050239;-60
2022/09/04 05:39:22;;;;;;;12.40;6.30;;;;;;;13.37;68.62;99706.71;25087;1313;3054896;-61
2022/09/04 05:42:03;;;;;;;13.20;6.90;;;;;;;13.39;68.51;99712.06;25085;1313;3026795;-61
2022/09/04 05:45:07;;;;;;;9.70;3.40;;;;;;;13.38;69.04;99709.16;25077;1313;3052587;-61
2022/09/04 05:47:37;;;;;;;;;;;;;;;14.28;66.19;99711.30;25055;1313;3055233;-62
2022/09/04 05:50:06;;;;;;;10.20;5.00;;;;;;;14.81;64.70;99716.48;25108;1314;3026542;-62
2022/09/04 05:52:47;;;;;;;11.30;6.40;;;;;;;14.76;64.38;99711.52;25051;1313;3053886;-62
2022/09/04 05:55:30;;;;;;;14.80;6.30;;;;;;;14.75;64.39;99712.51;25077;1312;3056827;-62
2022/09/04 05:58:05;;;;;;;11.60;5.90;;;;;;;14.65;64.46;99711.64;25045;1314;3054001;-62
2022/09/04 06:01:12;;;;;;;11.90;4.90;;;;;;;14.44;64.82;99717.58;25119;1314;3069787;-62
2022/09/04 06:03:44;;;;;;;13.00;5.50;;;;;;;14.28;65.21;99725.42;24955;1314;3049301;-61
2022/09/04 06:06:35;;;;;;;8.30;4.00;;;;;;;14.20;65.05;99728.76;25072;1315;3026177;-61
2022/09/04 06:09:11;;;;;;;9.50;3.70;;;;;;;14.03;65.51;99738.46;25061;1315;3052827;-62
2022/09/04 06:11:58;;;;;;;6.10;3.00;;;;;;;13.84;65.85;99732.19;25093;1315;3058273;-61
2022/09/04 06:15:05;;;;;;;7.10;3.50;;;;;;;13.80;66.38;99740.23;25083;1313;3052148;-61
2022/09/04 06:18:07;;;;;;;12.20;4.00;;;;;;;13.79;66.50;99738.55;25090;1315;3053912;-61
2022/09/04 06:20:45;;;;;;;11.90;4.60;;;;;;;13.80;66.10;99740.96;25098;1313;3051312;-62
2022/09/04 06:23:46;;;;;;;11.80;5.40;;;;;;;13.74;66.55;99742.00;25056;1314;3071306;-61
2022/09/04 06:26:26;;;;;;;11.10;5.40;;;;;;;13.74;66.73;99754.20;25069;1313;3051428;-62
2022/09/04 06:29:07;;;;;;;22.30;5.90;;;;;;;13.80;66.47;99759.96;25067;1313;3052755;-62
2022/09/04 06:32:07;;;;;;;12.60;5.90;;;;;;;13.89;66.30;99761.64;25106;1313;3053531;-61
2022/09/04 06:34:51;;;;;;;11.90;5.40;;;;;;;13.98;66.26;99763.06;25084;1313;3059215;-61
2022/09/04 06:37:20;;;;;;;11.60;5.10;;;;;;;13.89;66.33;99761.79;25121;1313;3049584;-60
2022/09/04 06:40:03;;;;;;;12.20;6.00;;;;;;;13.98;65.58;99769.97;25068;1314;3026730;-63
2022/09/04 06:42:51;;;;;;;12.20;6.40;;;;;;;14.08;65.27;99769.75;25097;1313;3056902;-61
2022/09/04 06:45:48;;;;;;;14.80;6.80;;;;;;;14.12;65.46;99772.90;25104;1313;3050996;-62
2022/09/04 06:48:27;;;;;;;14.40;6.20;;;;;;;14.15;65.27;99777.79;25047;1314;3055858;-61
2022/09/04 06:51:27;;;;;;;14.60;5.20;;;;;;;14.21;65.23;99777.16;25111;1313;3051251;-61
2022/09/04 06:54:03;;;;;;;8.30;3.50;;;;;;;14.29;64.64;99779.11;25070;1313;3069532;-59
2022/09/04 06:56:40;;;;;;;6.20;3.30;;;;;;;14.36;64.55;99779.96;25055;1313;3049204;-62
2022/09/04 06:59:09;;;;;;;9.00;3.30;;;;;;;14.49;64.12;99776.25;25049;1313;3054250;-62
2022/09/04 07:01:59;;;;;;;5.50;3.00;;;;;;;14.60;63.71;99782.66;25081;1313;3026667;-62
2022/09/04 07:04:42;;;;;;;8.40;3.60;;;;;;;14.63;63.38;99784.08;25093;1313;3058845;-62
2022/09/04 07:07:26;;;;;;;5.90;3.30;;;;;;;14.68;63.11;99786.69;25021;1313;3052570;-64
2022/09/04 07:10:05;;;;;;;6.70;2.90;;;;;;;14.76;62.83;99790.21;25049;1315;3052940;-63
2022/09/04 07:12:45;;;;;;;6.80;3.20;;;;;;;14.75;62.97;99789.90;25104;1313;3054176;-62
2022/09/04 07:15:47;;;;;;;5.20;2.50;;;;;;;14.67;62.83;99789.93;25061;1315;3069716;-63
2022/09/04 07:18:58;;;;;;;3.70;2.00;;;;;;;14.57;63.58;99799.67;25054;1313;3052829;-62
2022/09/04 07:21:53;;;;;;;6.20;2.10;;;;;;;14.65;63.33;99801.91;25039;1315;3055425;-62
2022/09/04 07:24:31;;;;;;;4.30;2.70;;;;;;;14.74;62.60;99800.23;25102;1313;3053650;-62
2022/09/04 07:27:06;;;;;;;3.40;2.20;;;;;;;14.86;62.29;99805.02;25083;1314;3059201;-62
2022/09/04 07:29:36;;;;;;;6.60;1.60;;;;;;;14.89;62.37;99799.44;25068;1315;3052428;-62
2022/09/04 07:32:11;;;;;;;4.70;2.10;;;;;;;14.91;61.82;99802.48;25030;1313;3026599;-62
2022/09/04 07:34:56;;;;;;;7.10;3.10;;;;;;;14.93;61.35;99800.98;25106;1314;3052078;-62
2022/09/04 07:37:32;;;;;;;8.90;3.50;;;;;;;14.89;61.58;99810.39;25027;1313;3070049;-61
2022/09/04 07:40:24;;;;;;;7.90;3.40;;;;;;;15.01;61.13;99811.09;25066;1314;3050093;-62
2022/09/04 07:43:27;;;;;;;7.90;3.50;;;;;;;15.06;61.30;99810.38;25041;1313;3054878;-62
2022/09/04 07:46:04;;;;;;;6.60;3.40;;;;;;;15.10;61.11;99809.20;25088;1315;3053982;-62
2022/09/04 07:48:54;;;;;;;12.30;4.80;;;;;;;15.21;60.49;99809.98;25072;1314;3055961;-62
2022/09/04 07:51:28;;;;;;;11.50;5.20;;;;;;;15.32;60.40;99810.98;25044;1314;3052569;-62
2022/09/04 07:54:37;;;;;;;13.80;5.50;;;;;;;15.33;60.49;99814.21;25066;1313;3052795;-62
2022/09/04 07:57:12;;;;;;;8.50;4.20;;;;;;;15.22;60.21;99808.52;25108;1315;3052497;-62
2022/09/04 08:00:05;;;;;;;7.70;3.60;;;;;;;15.22;59.93;99814.88;25046;1313;3070948;-62
2022/09/04 08:02:50;;;;;;;7.30;3.40;;;;;;;15.29;59.39;99815.62;25054;1313;3052218;-61
2022/09/04 08:05:35;;;;;;;5.60;3.20;;;;;;;15.30;59.52;99812.65;25055;1314;3052194;-62
2022/09/04 08:08:12;;;;;;;5.50;2.50;;;;;;;15.41;59.19;99807.62;25079;1315;3056955;-62
2022/09/04 08:11:01;;;;;;;4.90;2.20;;;;;;;15.43;58.74;99813.11;25056;1313;3058742;-62
2022/09/04 08:13:36;;;;;;;2.10;1.20;;;;;;;15.61;57.99;99813.88;25103;1313;3049619;-62
2022/09/04 08:16:07;;;;;;;2.90;1.20;;;;;;;15.70;57.45;99820.10;25048;1313;3055742;-62
2022/09/04 08:19:00;;;;;;;3.10;1.40;;;;;;;15.77;57.27;99821.80;25064;1315;3026565;-62
2022/09/04 08:21:36;;;;;;;5.00;1.60;;;;;;;15.78;57.46;99825.84;25062;1313;3069507;-61
2022/09/04 08:24:16;;;;;;;3.00;1.60;;;;;;;16.05;57.17;99824.16;25059;1315;3051892;-61
2022/09/04 08:26:45;;;;;;;5.30;1.70;;;;;;;16.18;56.96;99822.64;25094;1315;3053082;-61
2022/09/04 08:29:46;;;;;;;3.90;1.40;;;;;;;16.20;56.56;99823.90;25127;1313;3027473;-61
2022/09/04 08:32:35;;;;;;;6.00;1.90;;;;;;;16.29;56.11;99823.89;25066;1316;3051009;-61
2022/09/04 08:35:23;;;;;;;1.90;1.30;;;;;;;16.36;55.65;99816.99;25139;1316;3052760;-61
2022/09/04 08:38:30;;;;;;;4.40;1.20;;;;;;;16.51;55.23;99821.44;25105;1315;3055731;-63
2022/09/04 08:41:14;;;;;;;6.20;1.50;;;;;;;16.56;54.35;99820.18;25044;1313;3058840;-61
2022/09/04 08:43:43;;;;;;;7.50;1.50;;;;;;;16.46;54.44;99818.95;25055;1313;3051720;-62
2022/09/04 08:46:38;;;;;;;3.50;1.50;;;;;;;16.40;54.52;99822.85;25093;1313;3026871;-62
2022/09/04 08:49:26;;;;;;;;;;;;;;;16.36;54.85;99824.08;25075;1316;3057803;-61
2022/09/04 08:52:08;;;;;;;4.90;2.30;;;;;;;16.31;55.31;99823.02;25102;1313;3052404;-62
2022/09/04 08:54:47;;;;;;;4.10;2.50;;;;;;;16.37;55.42;99823.06;25093;1313;3055371;-61
2022/09/04 08:57:27;;;;;;;6.80;2.60;;;;;;;16.49;54.71;99822.69;25141;1313;3051791;-62
2022/09/04 09:00:33;;;;;;;7.70;2.10;;;;;;;16.57;54.47;99827.87;25087;1313;3070973;-62
2022/09/04 09:03:34;;;;;;;4.50;2.00;;;;;;;16.68;54.35;99829.85;24975;1321;3051217;-61
2022/09/04 09:06:23;;;;;;;7.00;2.40;;;;;;;16.70;54.19;99830.19;25101;1313;3055362;-61
2022/09/04 09:09:10;;;;;;;6.20;2.60;;;;;;;16.64;54.24;99830.65;25111;1313;3054978;-61
2022/09/04 09:11:51;;;;;;;4.40;2.20;;;;;;;16.49;54.11;99826.18;25035;1313;3056628;-61
2022/09/04 09:14:39;;;;;;;5.60;2.70;;;;;;;16.53;53.80;99827.30;25111;1312;3049912;-62
2022/09/04 09:17:11;;;;;;;6.20;3.20;;;;;;;16.58;53.59;99827.23;25122;1316;3053322;-62
2022/09/04 09:20:15;;;;;;;4.70;3.00;;;;;;;16.60;53.71;99829.02;25109;1316;3051047;-62
2022/09/04 09:23:14;;;;;;;4.80;3.10;;;;;;;16.55;53.66;99828.91;25029;1313;3071140;-62
2022/09/04 09:25:51;;;;;;;5.20;2.90;;;;;;;16.71;53.17;99830.30;25051;1312;3052234;-62
2022/09/04 09:28:49;;;;;;;5.00;2.60;;;;;;;16.74;53.15;99832.63;25107;1314;3053301;-61
2022/09/04 09:31:52;;;;;;;4.20;1.90;;;;;;;16.79;52.84;99837.09;25078;1315;3054884;-62
2022/09/04 09:34:36;;;;;;;4.10;1.70;;;;;;;16.57;53.69;99842.30;25052;1313;3059060;-60
2022/09/04 09:37:38;;;;;;;5.20;2.00;;;;;;;16.84;53.18;99845.52;25045;1315;3052908;-61
2022/09/04 09:40:19;;;;;;;9.20;2.80;;;;;;;17.07;52.42;99842.27;25058;1313;3055858;-62
2022/09/04 09:43:25;;;;;;;7.50;3.00;;;;;;;17.12;51.65;99838.70;25129;1315;3053976;-62
2022/09/04 09:46:14;;;;;;;5.50;1.70;;;;;;;17.13;52.02;99846.19;25138;1313;3068502;-62
2022/09/04 09:49:06;;;;;;;3.70;1.90;;;;;;;17.18;51.70;99846.00;25069;1313;3051825;-62
2022/09/04 09:51:44;;;;;;;4.20;1.40;;;;;;;17.19;51.16;99846.05;25103;1316;3055401;-62
2022/09/04 09:54:24;;;;;;;1.90;1.20;;;;;;;17.20;51.11;99852.85;25051;1315;3053136;-62
2022/09/04 09:57:32;;;;;;;7.80;2.00;;;;;;;17.33;51.16;99848.45;25046;1313;3058468;-61
2022/09/04 10:00:08;;;;;;;4.00;2.40;;;;;;;17.42;51.15;99858.02;25048;1316;3049695;-61
2022/09/04 10:03:12;;;;;;;4.50;2.50;;;;;;;17.32;51.06;99855.41;25047;1315;3053419;-61
2022/09/04 10:05:59;;;;;;;7.60;2.70;;;;;;;17.17;51.91;99855.98;25033;1315;3054311;-62
2022/09/04 10:08:53;;;;;;;3.60;2.00;;;;;;;17.24;51.61;99858.19;25083;1315;3070009;-62
2022/09/04 10:11:59;;;;;;;3.60;1.20;;;;;;;17.31;51.21;99861.52;25107;1318;3051928;-62
2022/09/04 10:14:40;;;;;;;2.40;1.40;;;;;;;17.30;50.72;99860.60;25109;1315;3054975;-62
2022/09/04 10:17:28;;;;;;;3.40;1.60;;;;;;;17.35;50.66;99853.95;25042;1315;3055248;-62
2022/09/04 10:20:28;;;;;;;3.30;1.30;;;;;;;17.38;50.58;99860.45;25090;1315;3058753;-62
2022/09/04 10:23:15;;;;;;;2.90;1.30;;;;;;;17.29;50.26;99863.64;25056;1313;3052906;-62
2022/09/04 10:25:59;;;;;;;2.60;1.10;;;;;;;17.31;50.66;99865.80;25117;1313;3055947;-62
2022/09/04 10:28:50;;;;;;;2.40;1.30;;;;;;;16.94;51.18;99866.84;25114;1315;3053939;-62
2022/09/04 10:31:25;;;;;;;3.60;1.20;;;;;;;17.00;51.26;99867.45;25032;1313;3071248;-62
2022/09/04 10:34:09;;;;;;;1.60;1.10;;;;;;;17.04;50.63;99863.00;25126;1313;3049673;-62
2022/09/04 10:36:57;;;;;;;3.20;1.10;;;;;;;17.01;50.14;99869.32;25104;1314;3052430;-62
2022/09/04 10:43:09;;;;;;;1.10;0.80;;;;;;;16.88;50.16;99870.34;25055;1315;3058763;-62
2022/09/04 10:45:38;;;;;;;2.50;1.00;;;;;;;16.75;50.45;99869.75;25077;1315;3051402;-62
2022/09/04 10:48:27;;;;;;;2.00;1.20;;;;;;;16.75;50.29;99873.63;25065;1316;3028553;-62
2022/09/04 10:51:07;;;;;;;3.80;1.30;;;;;;;16.76;50.19;99879.06;25080;1315;3053603;-62
2022/09/04 10:53:58;;;;;;;5.80;1.00;;;;;;;16.55;50.64;99881.05;25103;1313;3070666;-62
2022/09/04 10:56:34;;;;;;;2.20;0.90;;;;;;;16.47;51.09;99883.78;25064;1317;3051945;-62
2022/09/04 10:59:09;;;;;;;3.30;1.00;;;;;;;16.42;51.62;99885.06;25082;1316;3053554;-63
2022/09/04 11:01:54;;;;;;;1.90;1.00;;;;;;;16.60;51.45;99887.02;25085;1313;3055590;-62
2022/09/04 11:04:41;;;;;;;3.30;1.10;;;;;;;16.72;51.04;99880.02;25108;1318;3059458;-62
2022/09/04 11:07:57;;;;;;;3.30;1.50;;;;;;;16.72;50.90;99879.55;25120;1313;3049659;-62
2022/09/04 11:10:57;;;;;;;1.80;1.10;;;;;;;16.66;51.31;99883.02;25075;1316;3052605;-62
2022/09/04 11:13:31;;;;;;;1.40;0.90;;;;;;;16.54;51.34;99882.38;25087;1319;3053075;-61
2022/09/04 11:16:45;;;;;;;4.30;1.10;;;;;;;16.58;51.77;99888.08;25063;1317;3071670;-62
2022/09/04 11:19:19;;;;;;;5.00;1.20;;;;;;;16.56;51.71;99888.19;24955;1321;3051874;-61
2022/09/04 11:21:57;;;;;;;4.20;0.90;;;;;;;16.46;51.74;99885.48;24960;1321;3053004;-61
2022/09/04 11:24:46;;;;;;;4.50;1.10;;;;;;;16.39;51.47;99883.52;24994;1313;3054621;-62
2022/09/04 11:27:53;;;;;;;2.90;1.20;;;;;;;16.40;51.62;99885.06;25106;1315;3059349;-61
2022/09/04 11:30:28;;;;;;;5.40;1.00;;;;;;;16.39;51.79;99889.58;25114;1313;3052716;-61
2022/09/04 11:33:36;;;;;;;3.80;1.10;;;;;;;16.33;51.84;99888.05;25068;1315;3055828;-62
2022/09/04 11:36:14;;;;;;;3.80;1.10;;;;;;;16.06;52.03;99888.38;24322;1313;3054305;-62
2022/09/04 11:39:09;;;;;;;2.90;1.10;;;;;;;16.22;51.43;99877.98;25019;1316;3052941;-61
2022/09/04 11:42:10;;;;;;;3.70;0.90;;;;;;;16.37;50.74;99880.16;25078;1316;3056262;-61
2022/09/04 11:45:05;;;;;;;2.40;0.80;;;;;;;16.29;51.26;99886.25;25104;1316;3051132;-62
2022/09/04 11:47:35;;;;;;;2.30;0.90;;;;;;;16.24;51.33;99886.63;25088;1317;3071403;-62
2022/09/04 11:50:13;;;;;;;2.10;1.00;;;;;;;16.19;51.64;99883.48;25108;1313;3026355;-62
2022/09/04 11:52:56;;;;;;;6.90;2.10;;;;;;;16.08;52.02;99881.02;25098;1314;3052465;-62
2022/09/04 11:55:44;;;;;;;12.70;5.30;;;;;;;16.03;52.73;99884.21;25036;1317;3054628;-62
2022/09/04 11:58:35;;;;;;;8.60;4.70;;;;;;;15.99;53.19;99888.04;25041;1315;3055242;-62
2022/09/04 12:01:42;;;;;;;3.70;2.00;;;;;;;15.94;53.38;99879.73;25108;1318;3052688;-62
2022/09/04 12:04:36;;;;;;;3.80;1.20;;;;;;;15.97;52.64;99885.69;25067;1316;3055248;-62
2022/09/04 12:07:30;;;;;;;1.80;1.00;;;;;;;15.94;52.42;99883.11;25090;1313;3053999;-62
2022/09/04 12:10:14;;;;;;;3.70;1.00;;;;;;;16.03;51.95;99881.76;25067;1318;3069960;-61
2022/09/04 12:12:56;;;;;;;4.70;1.10;;;;;;;16.06;52.16;99882.54;25099;1318;3052091;-62
2022/09/04 12:15:53;;;;;;;3.40;1.20;;;;;;;16.08;52.41;99886.34;25070;1319;3055211;-61
2022/09/04 12:18:52;;;;;;;3.50;0.90;;;;;;;16.18;51.13;99884.86;25116;1313;3055694;-61
2022/09/04 12:21:42;;;;;;;2.90;1.00;;;;;;;16.28;51.10;99887.91;25056;1316;3058719;-62
2022/09/04 12:24:28;;;;;;;1.40;0.80;;;;;;;16.44;50.60;99890.90;25039;1313;3049766;-62
2022/09/04 12:27:29;;;;;;;2.40;1.20;;;;;;;16.67;50.45;99897.12;25087;1313;3054953;-61
2022/09/04 12:30:06;;;;;;;1.80;0.90;;;;;;;16.76;50.21;99895.31;25088;1317;3051865;-62
2022/09/04 12:33:02;;;;;;;2.10;1.10;;;;;;;16.83;50.02;99895.34;25075;1316;3070621;-62
2022/09/04 12:36:03;;;;;;;1.40;0.80;;;;;;;16.62;50.03;99896.08;25100;1315;3052058;-62
2022/09/04 12:38:55;;;;;;;1.50;0.90;;;;;;;16.56;50.39;99898.45;25106;1317;3052888;-61
2022/09/04 12:41:24;;;;;;;1.20;0.90;;;;;;;16.60;50.58;99904.88;25050;1315;3052075;-62
2022/09/04 12:44:15;;;;;;;3.00;1.20;;;;;;;16.64;50.62;99902.31;25060;1315;3030171;-61
2022/09/04 12:46:54;;;;;;;5.40;1.10;;;;;;;16.60;50.33;99900.48;25147;1316;3052651;-61